createdAt,value
2018-07-31T00:00:22.033Z,25.22
2018-07-31T00:01:22.023Z,25.17
2018-07-31T00:02:22.003Z,25.15
2018-07-31T00:03:22.028Z,25.05
2018-07-31T00:04:21.964Z,25.14
2018-07-31T00:05:21.957Z,25.12
2018-07-31T00:06:21.931Z,25.12
2018-07-31T00:07:21.909Z,25.23
2018-07-31T00:08:21.895Z,25.26
2018-07-31T00:09:21.861Z,25.27
2018-07-31T00:10:21.858Z,25.32
2018-07-31T00:11:21.833Z,25.24
2018-07-31T00:12:21.811Z,25.34
2018-07-31T00:13:21.807Z,25.33
2018-07-31T00:14:21.809Z,25.24
2018-07-31T00:15:21.816Z,25.27
2018-07-31T00:16:21.785Z,25.34
2018-07-31T00:17:21.791Z,25.32
2018-07-31T00:18:21.783Z,25.32
2018-07-31T00:19:21.788Z,25.32
2018-07-31T00:20:21.787Z,25.30
2018-07-31T00:21:21.789Z,25.23
2018-07-31T00:22:21.779Z,25.30
2018-07-31T00:23:21.604Z,25.32
2018-07-31T00:24:21.585Z,25.27
2018-07-31T00:25:21.561Z,25.20
2018-07-31T00:26:21.544Z,25.15
2018-07-31T00:27:21.525Z,25.23
2018-07-31T00:28:21.517Z,25.19
2018-07-31T00:29:21.489Z,25.09
2018-07-31T00:30:21.471Z,25.08
2018-07-31T00:31:21.453Z,25.09
2018-07-31T00:32:21.427Z,24.94
2018-07-31T00:33:21.413Z,25.01
2018-07-31T00:34:21.394Z,25.01
2018-07-31T00:35:21.369Z,24.89
2018-07-31T00:36:21.357Z,24.89
2018-07-31T00:37:21.330Z,24.87
2018-07-31T00:38:21.308Z,24.86
2018-07-31T00:39:21.291Z,24.86
2018-07-31T00:40:21.284Z,24.86
2018-07-31T00:41:21.259Z,24.83
2018-07-31T00:42:21.243Z,24.85
2018-07-31T00:43:21.233Z,24.77
2018-07-31T00:44:21.195Z,24.74
2018-07-31T00:45:21.175Z,24.74
2018-07-31T00:46:21.151Z,24.82
2018-07-31T00:47:21.148Z,24.75
2018-07-31T00:48:21.114Z,24.74
2018-07-31T00:49:21.156Z,24.74
2018-07-31T00:50:21.069Z,24.77
2018-07-31T00:51:21.063Z,24.71
2018-07-31T00:52:21.030Z,24.66
2018-07-31T00:53:21.022Z,24.66
2018-07-31T00:54:21.002Z,24.69
2018-07-31T00:55:20.986Z,24.58
2018-07-31T00:56:20.956Z,24.59
2018-07-31T00:57:20.933Z,24.58
2018-07-31T00:58:20.926Z,24.55
2018-07-31T00:59:20.908Z,24.52
2018-07-31T01:00:20.884Z,24.52
2018-07-31T01:01:20.853Z,24.52
2018-07-31T01:02:20.843Z,24.48
2018-07-31T01:03:20.826Z,24.48
2018-07-31T01:04:20.799Z,24.40
2018-07-31T01:05:20.780Z,24.46
2018-07-31T01:06:20.760Z,24.52
2018-07-31T01:07:20.734Z,24.42
2018-07-31T01:08:20.711Z,24.37
2018-07-31T01:09:20.693Z,24.39
2018-07-31T01:10:20.683Z,24.37
2018-07-31T01:11:20.660Z,24.40
2018-07-31T01:12:20.635Z,24.40
2018-07-31T01:13:20.616Z,24.36
2018-07-31T01:14:20.612Z,24.37
2018-07-31T01:15:20.577Z,24.39
2018-07-31T01:16:20.556Z,24.37
2018-07-31T01:17:20.553Z,24.34
2018-07-31T01:18:20.533Z,24.33
2018-07-31T01:19:20.494Z,24.33
2018-07-31T01:20:20.480Z,24.34
2018-07-31T01:21:20.485Z,24.30
2018-07-31T01:22:20.440Z,24.22
2018-07-31T01:23:20.416Z,24.27
2018-07-31T01:24:20.397Z,24.19
2018-07-31T01:25:20.380Z,24.14
2018-07-31T01:26:20.359Z,24.09
2018-07-31T01:27:20.342Z,24.12
2018-07-31T01:28:20.331Z,24.15
2018-07-31T01:29:20.299Z,24.14
2018-07-31T01:30:20.285Z,24.09
2018-07-31T01:31:20.250Z,24.17
2018-07-31T01:32:20.254Z,24.07
2018-07-31T01:33:20.216Z,24.09
2018-07-31T01:34:20.200Z,24.03
2018-07-31T01:35:20.170Z,24.03
2018-07-31T01:36:20.166Z,24.02
2018-07-31T01:37:20.133Z,23.97
2018-07-31T01:38:20.107Z,23.97
2018-07-31T01:39:20.095Z,23.90
2018-07-31T01:40:20.075Z,23.93
2018-07-31T01:41:20.049Z,23.96
2018-07-31T01:42:20.034Z,23.87
2018-07-31T01:43:20.022Z,23.85
2018-07-31T01:44:19.991Z,23.84
2018-07-31T01:45:19.973Z,23.87
2018-07-31T01:46:19.946Z,23.89
2018-07-31T01:47:19.938Z,23.87
2018-07-31T01:48:19.915Z,23.85
2018-07-31T01:49:19.882Z,23.89
2018-07-31T01:50:19.873Z,23.87
2018-07-31T01:51:19.859Z,23.85
2018-07-31T01:52:19.818Z,23.78
2018-07-31T01:53:19.809Z,23.71
2018-07-31T01:54:19.780Z,23.67
2018-07-31T01:55:19.764Z,23.77
2018-07-31T01:56:19.742Z,23.77
2018-07-31T01:57:19.714Z,23.74
2018-07-31T01:58:19.705Z,23.67
2018-07-31T01:59:19.699Z,23.67
2018-07-31T02:00:19.659Z,23.64
2018-07-31T02:01:19.644Z,23.57
2018-07-31T02:02:19.617Z,23.50
2018-07-31T02:03:19.613Z,23.50
2018-07-31T02:04:19.570Z,23.52
2018-07-31T02:05:19.572Z,23.44
2018-07-31T02:06:19.557Z,23.47
2018-07-31T02:07:19.547Z,23.38
2018-07-31T02:08:19.489Z,23.34
2018-07-31T02:09:19.478Z,23.18
2018-07-31T02:10:19.457Z,23.22
2018-07-31T02:11:19.429Z,23.21
2018-07-31T02:12:19.413Z,23.24
2018-07-31T02:13:19.397Z,23.22
2018-07-31T02:14:19.382Z,23.24
2018-07-31T02:15:19.349Z,23.21
2018-07-31T02:16:19.326Z,23.18
2018-07-31T02:17:20.271Z,23.09
2018-07-31T02:18:19.279Z,23.16
2018-07-31T02:19:19.267Z,23.14
2018-07-31T02:20:19.257Z,23.10
2018-07-31T02:21:19.249Z,23.14
2018-07-31T02:22:19.199Z,23.03
2018-07-31T02:23:19.180Z,23.03
2018-07-31T02:24:19.167Z,23.00
2018-07-31T02:25:19.153Z,22.97
2018-07-31T02:26:19.114Z,22.86
2018-07-31T02:27:19.107Z,22.86
2018-07-31T02:28:19.822Z,22.88
2018-07-31T02:29:19.052Z,22.89
2018-07-31T02:30:19.043Z,22.88
2018-07-31T02:31:19.018Z,22.91
2018-07-31T02:32:18.999Z,22.82
2018-07-31T02:33:18.971Z,22.85
2018-07-31T02:34:18.965Z,22.78
2018-07-31T02:35:18.952Z,22.96
2018-07-31T02:36:18.902Z,22.81
2018-07-31T02:37:18.884Z,22.78
2018-07-31T02:38:18.873Z,22.81
2018-07-31T02:39:18.858Z,22.73
2018-07-31T02:40:18.827Z,22.85
2018-07-31T02:41:18.804Z,22.75
2018-07-31T02:42:18.783Z,22.79
2018-07-31T02:43:18.796Z,22.71
2018-07-31T02:44:18.735Z,22.75
2018-07-31T02:45:18.713Z,22.73
2018-07-31T02:46:18.706Z,22.84
2018-07-31T02:47:18.671Z,22.70
2018-07-31T02:48:18.655Z,22.67
2018-07-31T02:49:18.636Z,22.64
2018-07-31T02:50:18.617Z,22.64
2018-07-31T02:51:18.596Z,22.61
2018-07-31T02:52:18.567Z,22.55
2018-07-31T02:53:18.564Z,22.57
2018-07-31T02:54:18.548Z,22.57
2018-07-31T02:55:18.557Z,22.52
2018-07-31T02:56:18.482Z,22.57
2018-07-31T02:57:18.475Z,22.60
2018-07-31T02:58:18.472Z,22.63
2018-07-31T02:59:18.422Z,22.54
2018-07-31T03:00:18.408Z,22.57
2018-07-31T03:01:18.385Z,22.48
2018-07-31T03:02:18.358Z,22.45
2018-07-31T03:03:18.333Z,22.41
2018-07-31T03:04:18.312Z,22.41
2018-07-31T03:05:18.300Z,22.41
2018-07-31T03:06:18.309Z,22.41
2018-07-31T03:07:18.251Z,22.33
2018-07-31T03:08:18.315Z,22.31
2018-07-31T03:09:18.259Z,22.36
2018-07-31T03:10:18.176Z,22.41
2018-07-31T03:11:18.169Z,22.42
2018-07-31T03:12:18.149Z,22.42
2018-07-31T03:13:18.139Z,22.45
2018-07-31T03:14:18.103Z,22.34
2018-07-31T03:15:18.081Z,22.33
2018-07-31T03:16:18.053Z,22.31
2018-07-31T03:17:18.029Z,22.34
2018-07-31T03:18:18.018Z,22.31
2018-07-31T03:19:17.995Z,22.33
2018-07-31T03:20:17.967Z,22.34
2018-07-31T03:21:17.953Z,22.34
2018-07-31T03:22:17.936Z,22.23
2018-07-31T03:23:17.901Z,22.27
2018-07-31T03:24:17.887Z,22.11
2018-07-31T03:25:17.870Z,22.27
2018-07-31T03:26:17.846Z,22.30
2018-07-31T03:27:17.841Z,22.23
2018-07-31T03:28:17.859Z,22.09
2018-07-31T03:29:17.782Z,22.11
2018-07-31T03:30:17.763Z,22.14
2018-07-31T03:31:17.743Z,22.12
2018-07-31T03:32:17.713Z,22.15
2018-07-31T03:33:17.700Z,22.08
2018-07-31T03:34:17.685Z,22.11
2018-07-31T03:35:17.660Z,22.16
2018-07-31T03:36:17.624Z,22.15
2018-07-31T03:37:17.609Z,22.12
2018-07-31T03:38:17.624Z,22.15
2018-07-31T03:39:17.556Z,22.16
2018-07-31T03:40:17.552Z,22.22
2018-07-31T03:41:17.540Z,22.22
2018-07-31T03:42:17.490Z,22.24
2018-07-31T03:43:17.476Z,22.11
2018-07-31T03:44:17.467Z,22.12
2018-07-31T03:45:17.431Z,22.26
2018-07-31T03:46:17.405Z,22.11
2018-07-31T03:47:17.394Z,22.24
2018-07-31T03:48:17.377Z,22.18
2018-07-31T03:49:17.357Z,22.24
2018-07-31T03:50:17.330Z,22.24
2018-07-31T03:51:17.309Z,22.20
2018-07-31T03:52:17.279Z,22.08
2018-07-31T03:53:17.257Z,22.18
2018-07-31T03:54:17.237Z,22.16
2018-07-31T03:55:17.232Z,22.14
2018-07-31T03:56:17.210Z,22.24
2018-07-31T03:57:17.172Z,22.20
2018-07-31T03:58:17.163Z,22.24
2018-07-31T03:59:17.131Z,22.11
2018-07-31T04:00:17.104Z,22.05
2018-07-31T04:01:17.084Z,22.05
2018-07-31T04:02:17.080Z,22.07
2018-07-31T04:03:17.049Z,22.09
2018-07-31T04:04:17.020Z,22.11
2018-07-31T04:05:17.011Z,22.04
2018-07-31T04:06:17.005Z,22.07
2018-07-31T04:07:16.950Z,22.04
2018-07-31T04:08:16.936Z,22.08
2018-07-31T04:09:16.931Z,22.11
2018-07-31T04:10:16.893Z,22.08
2018-07-31T04:11:16.876Z,22.14
2018-07-31T04:12:16.852Z,22.24
2018-07-31T04:13:16.837Z,22.18
2018-07-31T04:14:16.809Z,22.20
2018-07-31T04:15:16.788Z,22.18
2018-07-31T04:16:16.767Z,22.16
2018-07-31T04:17:16.881Z,22.16
2018-07-31T04:18:16.724Z,22.15
2018-07-31T04:19:16.699Z,22.23
2018-07-31T04:20:16.678Z,22.14
2018-07-31T04:21:16.658Z,22.12
2018-07-31T04:22:16.635Z,22.15
2018-07-31T04:23:16.611Z,22.07
2018-07-31T04:24:16.588Z,22.09
2018-07-31T04:25:16.561Z,22.12
2018-07-31T04:26:16.545Z,22.12
2018-07-31T04:27:16.536Z,22.09
2018-07-31T04:28:16.507Z,22.07
2018-07-31T04:29:16.477Z,22.09
2018-07-31T04:30:16.471Z,22.09
2018-07-31T04:31:16.447Z,22.15
2018-07-31T04:32:16.424Z,22.05
2018-07-31T04:33:16.392Z,22.09
2018-07-31T04:34:16.375Z,22.04
2018-07-31T04:35:16.348Z,21.94
2018-07-31T04:36:16.357Z,21.97
2018-07-31T04:37:16.317Z,22.04
2018-07-31T04:38:16.311Z,21.97
2018-07-31T04:39:16.260Z,22.04
2018-07-31T04:40:16.249Z,21.97
2018-07-31T04:41:16.301Z,22.02
2018-07-31T04:42:16.215Z,22.02
2018-07-31T04:43:16.185Z,21.97
2018-07-31T04:44:16.167Z,21.96
2018-07-31T04:45:16.143Z,21.97
2018-07-31T04:46:16.127Z,21.96
2018-07-31T04:47:16.104Z,21.96
2018-07-31T04:48:16.075Z,21.92
2018-07-31T04:49:16.046Z,21.94
2018-07-31T04:50:16.048Z,21.99
2018-07-31T04:51:16.006Z,22.07
2018-07-31T04:52:15.992Z,22.04
2018-07-31T04:53:15.978Z,22.05
2018-07-31T04:54:15.934Z,22.09
2018-07-31T04:55:15.928Z,22.11
2018-07-31T04:56:15.913Z,22.04
2018-07-31T04:57:15.877Z,22.07
2018-07-31T04:58:15.850Z,22.09
2018-07-31T04:59:15.838Z,22.15
2018-07-31T05:00:15.810Z,22.15
2018-07-31T05:01:15.789Z,22.12
2018-07-31T05:02:15.768Z,22.14
2018-07-31T05:03:15.786Z,22.16
2018-07-31T05:04:15.736Z,22.24
2018-07-31T05:05:15.769Z,22.20
2018-07-31T05:06:15.687Z,22.11
2018-07-31T05:07:15.683Z,22.20
2018-07-31T05:08:15.635Z,22.24
2018-07-31T05:09:15.611Z,22.09
2018-07-31T05:10:15.600Z,22.18
2018-07-31T05:11:15.574Z,22.15
2018-07-31T05:12:15.554Z,22.23
2018-07-31T05:13:15.537Z,22.18
2018-07-31T05:14:15.524Z,22.12
2018-07-31T05:15:15.491Z,22.20
2018-07-31T05:16:15.472Z,22.24
2018-07-31T05:17:15.449Z,22.29
2018-07-31T05:18:15.455Z,22.33
2018-07-31T05:19:15.396Z,22.31
2018-07-31T05:20:15.388Z,22.36
2018-07-31T05:21:15.368Z,22.41
2018-07-31T05:22:15.350Z,22.38
2018-07-31T05:23:15.317Z,22.41
2018-07-31T05:24:15.296Z,22.49
2018-07-31T05:25:15.309Z,22.54
2018-07-31T05:26:15.251Z,22.54
2018-07-31T05:27:15.222Z,22.55
2018-07-31T05:28:15.221Z,22.66
2018-07-31T05:29:15.218Z,22.69
2018-07-31T05:30:15.164Z,22.78
2018-07-31T05:31:15.147Z,22.73
2018-07-31T05:32:15.118Z,22.66
2018-07-31T05:33:15.096Z,22.67
2018-07-31T05:34:15.085Z,22.67
2018-07-31T05:35:15.079Z,22.64
2018-07-31T05:36:15.041Z,22.64
2018-07-31T05:37:15.017Z,22.66
2018-07-31T05:38:14.997Z,22.61
2018-07-31T05:39:14.980Z,22.67
2018-07-31T05:40:14.959Z,22.70
2018-07-31T05:41:14.935Z,22.63
2018-07-31T05:42:14.912Z,22.61
2018-07-31T05:43:14.904Z,22.46
2018-07-31T05:44:14.867Z,22.55
2018-07-31T05:45:14.855Z,22.54
2018-07-31T05:46:14.876Z,22.55
2018-07-31T05:47:14.806Z,22.48
2018-07-31T05:48:14.780Z,22.57
2018-07-31T05:49:14.755Z,22.61
2018-07-31T05:50:14.748Z,22.64
2018-07-31T05:51:14.728Z,22.55
2018-07-31T05:52:17.279Z,22.76
2018-07-31T05:53:14.686Z,22.73
2018-07-31T05:54:14.655Z,22.71
2018-07-31T05:55:14.632Z,22.70
2018-07-31T05:56:14.612Z,22.71
2018-07-31T05:57:14.597Z,22.75
2018-07-31T05:58:14.576Z,22.73
2018-07-31T05:59:14.548Z,22.84
2018-07-31T06:00:14.524Z,22.76
2018-07-31T06:01:14.506Z,22.78
2018-07-31T06:02:14.491Z,22.81
2018-07-31T06:03:14.470Z,22.79
2018-07-31T06:04:14.440Z,22.84
2018-07-31T06:05:14.423Z,22.79
2018-07-31T06:06:14.416Z,22.78
2018-07-31T06:07:14.384Z,22.91
2018-07-31T06:08:14.369Z,22.82
2018-07-31T06:09:14.344Z,22.92
2018-07-31T06:10:14.320Z,22.91
2018-07-31T06:11:14.306Z,22.92
2018-07-31T06:12:14.312Z,23.01
2018-07-31T06:13:14.254Z,23.04
2018-07-31T06:14:14.239Z,23.04
2018-07-31T06:15:14.259Z,23.15
2018-07-31T06:16:14.197Z,23.10
2018-07-31T06:17:14.174Z,23.26
2018-07-31T06:18:14.144Z,23.24
2018-07-31T06:19:14.157Z,23.29
2018-07-31T06:20:14.108Z,23.34
2018-07-31T06:21:14.084Z,23.21
2018-07-31T06:22:14.074Z,23.21
2018-07-31T06:23:14.044Z,23.38
2018-07-31T06:24:14.017Z,23.37
2018-07-31T06:25:14.004Z,23.37
2018-07-31T06:26:13.999Z,23.41
2018-07-31T06:27:13.959Z,23.42
2018-07-31T06:28:13.941Z,23.45
2018-07-31T06:29:13.919Z,23.41
2018-07-31T06:30:13.916Z,23.48
2018-07-31T06:31:13.877Z,23.52
2018-07-31T06:32:13.859Z,23.63
2018-07-31T06:33:13.847Z,23.64
2018-07-31T06:34:13.808Z,23.75
2018-07-31T06:35:13.796Z,23.67
2018-07-31T06:36:13.790Z,23.77
2018-07-31T06:37:13.756Z,23.85
2018-07-31T06:38:13.734Z,23.85
2018-07-31T06:39:13.707Z,23.97
2018-07-31T06:40:13.690Z,23.96
2018-07-31T06:41:13.682Z,23.99
2018-07-31T06:42:13.695Z,24.07
2018-07-31T06:43:13.634Z,24.00
2018-07-31T06:44:13.621Z,24.09
2018-07-31T06:45:13.582Z,24.14
2018-07-31T06:46:13.565Z,24.19
2018-07-31T06:47:13.555Z,24.22
2018-07-31T06:48:13.535Z,24.19
2018-07-31T06:49:13.516Z,24.36
2018-07-31T06:50:13.494Z,24.48
2018-07-31T06:51:13.477Z,24.44
2018-07-31T06:52:13.519Z,24.61
2018-07-31T06:53:13.424Z,24.69
2018-07-31T06:54:13.400Z,24.74
2018-07-31T06:55:13.390Z,24.85
2018-07-31T06:56:13.362Z,24.90
2018-07-31T06:57:13.360Z,25.02
2018-07-31T06:58:13.347Z,25.09
2018-07-31T06:59:13.308Z,25.15
2018-07-31T07:00:13.307Z,25.14
2018-07-31T07:01:13.257Z,25.02
2018-07-31T07:02:13.254Z,25.14
2018-07-31T07:03:13.285Z,25.14
2018-07-31T07:04:13.201Z,25.23
2018-07-31T07:05:13.188Z,25.33
2018-07-31T07:06:13.168Z,25.29
2018-07-31T07:07:13.168Z,25.38
2018-07-31T07:08:13.125Z,25.38
2018-07-31T07:09:13.112Z,25.38
2018-07-31T07:10:13.083Z,25.37
2018-07-31T07:11:13.078Z,25.44
2018-07-31T07:12:13.054Z,25.52
2018-07-31T07:13:13.029Z,25.48
2018-07-31T07:14:13.010Z,25.57
2018-07-31T07:15:13.003Z,25.56
2018-07-31T07:16:12.974Z,25.60
2018-07-31T07:17:12.956Z,25.59
2018-07-31T07:18:12.936Z,25.64
2018-07-31T07:19:12.944Z,25.71
2018-07-31T07:20:12.899Z,25.78
2018-07-31T07:21:12.874Z,25.79
2018-07-31T07:22:12.857Z,25.89
2018-07-31T07:23:12.840Z,26.03
2018-07-31T07:24:12.824Z,26.16
2018-07-31T07:25:12.804Z,26.27
2018-07-31T07:26:12.797Z,26.32
2018-07-31T07:27:12.775Z,26.34
2018-07-31T07:28:12.760Z,26.17
2018-07-31T07:29:12.740Z,26.35
2018-07-31T07:30:12.711Z,26.38
2018-07-31T07:31:12.709Z,26.38
2018-07-31T07:32:12.673Z,26.39
2018-07-31T07:33:12.651Z,26.44
2018-07-31T07:34:12.639Z,26.52
2018-07-31T07:35:12.625Z,26.59
2018-07-31T07:36:12.594Z,26.71
2018-07-31T07:37:12.595Z,26.76
2018-07-31T07:38:12.561Z,26.87
2018-07-31T07:39:12.592Z,26.89
2018-07-31T07:40:12.550Z,26.89
2018-07-31T07:41:12.520Z,26.82
2018-07-31T07:42:12.501Z,26.64
2018-07-31T07:43:12.472Z,26.79
2018-07-31T07:44:12.459Z,26.81
2018-07-31T07:45:12.446Z,26.90
2018-07-31T07:46:12.444Z,27.05
2018-07-31T07:47:12.418Z,27.23
2018-07-31T07:48:12.376Z,27.19
2018-07-31T07:49:12.364Z,27.16
2018-07-31T07:50:12.364Z,27.34
2018-07-31T07:51:12.347Z,27.30
2018-07-31T07:52:12.313Z,27.23
2018-07-31T07:53:12.304Z,27.31
2018-07-31T07:54:12.420Z,27.24
2018-07-31T07:55:12.287Z,27.28
2018-07-31T07:56:12.261Z,27.12
2018-07-31T07:57:12.229Z,27.12
2018-07-31T07:58:12.223Z,27.28
2018-07-31T07:59:12.195Z,27.30
2018-07-31T08:00:12.208Z,27.26
2018-07-31T08:01:12.194Z,27.41
2018-07-31T08:02:12.158Z,27.45
2018-07-31T08:03:12.158Z,27.38
2018-07-31T08:04:12.164Z,27.48
2018-07-31T08:05:12.087Z,27.51
2018-07-31T08:06:12.066Z,27.46
2018-07-31T08:07:12.069Z,27.45
2018-07-31T08:08:12.074Z,27.46
2018-07-31T08:09:12.033Z,27.46
2018-07-31T08:10:12.065Z,27.42
2018-07-31T08:11:12.000Z,27.45
2018-07-31T08:12:11.976Z,27.57
2018-07-31T08:13:11.942Z,27.45
2018-07-31T08:14:11.925Z,27.62
2018-07-31T08:15:11.937Z,27.62
2018-07-31T08:16:11.910Z,27.59
2018-07-31T08:17:11.908Z,27.59
2018-07-31T08:18:11.859Z,27.61
2018-07-31T08:19:11.845Z,27.61
2018-07-31T08:20:11.842Z,27.62
2018-07-31T08:21:11.830Z,27.64
2018-07-31T08:22:11.823Z,27.72
2018-07-31T08:23:11.777Z,27.76
2018-07-31T08:24:11.777Z,27.79
2018-07-31T08:25:11.765Z,27.79
2018-07-31T08:26:11.721Z,27.89
2018-07-31T08:27:11.714Z,27.99
2018-07-31T08:28:11.708Z,28.08
2018-07-31T08:29:11.716Z,28.05
2018-07-31T08:30:11.652Z,28.11
2018-07-31T08:31:11.649Z,28.09
2018-07-31T08:32:12.337Z,28.16
2018-07-31T08:33:11.615Z,28.23
2018-07-31T08:34:11.619Z,28.26
2018-07-31T08:35:11.588Z,28.36
2018-07-31T08:36:11.633Z,28.27
2018-07-31T08:37:11.561Z,28.33
2018-07-31T08:38:11.539Z,28.23
2018-07-31T08:39:11.512Z,28.24
2018-07-31T08:40:11.601Z,28.26
2018-07-31T08:41:11.506Z,28.28
2018-07-31T08:42:11.473Z,28.35
2018-07-31T08:43:11.437Z,28.43
2018-07-31T08:44:11.411Z,28.36
2018-07-31T08:45:11.406Z,28.43
2018-07-31T08:46:11.384Z,28.39
2018-07-31T08:47:11.386Z,28.42
2018-07-31T08:48:11.366Z,28.39
2018-07-31T08:49:11.336Z,28.38
2018-07-31T08:50:11.321Z,28.36
2018-07-31T08:51:11.328Z,28.36
2018-07-31T08:52:11.296Z,28.45
2018-07-31T08:53:11.273Z,28.46
2018-07-31T08:54:11.283Z,28.57
2018-07-31T08:55:11.248Z,28.67
2018-07-31T08:56:11.242Z,28.78
2018-07-31T08:57:11.223Z,28.86
2018-07-31T08:58:11.182Z,28.95
2018-07-31T08:59:11.178Z,29.06
2018-07-31T09:00:11.171Z,29.20
2018-07-31T09:01:11.141Z,29.39
2018-07-31T09:02:11.130Z,29.35
2018-07-31T09:03:11.107Z,29.39
2018-07-31T09:04:11.091Z,29.50
2018-07-31T09:05:11.123Z,29.50
2018-07-31T09:06:11.062Z,29.55
2018-07-31T09:07:11.034Z,29.57
2018-07-31T09:08:11.048Z,29.57
2018-07-31T09:09:11.022Z,29.63
2018-07-31T09:10:11.040Z,29.60
2018-07-31T09:11:10.979Z,29.63
2018-07-31T09:12:10.973Z,29.84
2018-07-31T09:13:10.949Z,29.84
2018-07-31T09:14:10.935Z,29.97
2018-07-31T09:15:10.917Z,30.03
2018-07-31T09:16:10.893Z,29.97
2018-07-31T09:17:10.890Z,29.66
2018-07-31T09:18:10.863Z,29.66
2018-07-31T09:19:10.867Z,29.69
2018-07-31T09:20:10.842Z,29.81
2018-07-31T09:21:10.844Z,29.79
2018-07-31T09:22:10.815Z,29.89
2018-07-31T09:23:10.787Z,29.88
2018-07-31T09:24:10.777Z,30.07
2018-07-31T09:25:10.761Z,30.10
2018-07-31T09:26:10.780Z,30.11
2018-07-31T09:27:10.745Z,30.24
2018-07-31T09:28:10.716Z,30.24
2018-07-31T09:29:10.704Z,30.32
2018-07-31T09:30:10.677Z,30.39
2018-07-31T09:31:10.679Z,30.48
2018-07-31T09:32:10.646Z,30.48
2018-07-31T09:33:10.633Z,30.44
2018-07-31T09:34:10.628Z,30.44
2018-07-31T09:35:10.646Z,30.47
2018-07-31T09:36:10.602Z,30.39
2018-07-31T09:37:10.585Z,30.47
2018-07-31T09:38:10.635Z,30.44
2018-07-31T09:39:10.551Z,30.40
2018-07-31T09:40:10.540Z,30.35
2018-07-31T09:41:10.521Z,30.45
2018-07-31T09:42:10.500Z,30.40
2018-07-31T09:43:10.488Z,30.35
2018-07-31T09:44:10.477Z,30.40
2018-07-31T09:45:10.483Z,30.39
2018-07-31T09:46:10.439Z,30.37
2018-07-31T09:47:10.429Z,30.35
2018-07-31T09:48:10.417Z,30.44
2018-07-31T09:49:10.400Z,30.49
2018-07-31T09:50:10.448Z,30.45
2018-07-31T09:51:10.370Z,30.54
2018-07-31T09:52:10.344Z,30.56
2018-07-31T09:53:10.354Z,30.60
2018-07-31T09:54:10.328Z,30.59
2018-07-31T09:55:10.303Z,30.54
2018-07-31T09:56:10.288Z,30.56
2018-07-31T09:57:10.278Z,30.34
2018-07-31T09:58:10.262Z,30.40
2018-07-31T09:59:10.256Z,30.32
2018-07-31T10:00:10.232Z,30.32
2018-07-31T10:01:10.217Z,30.32
2018-07-31T10:02:10.206Z,30.39
2018-07-31T10:03:10.213Z,30.49
2018-07-31T10:04:10.163Z,30.45
2018-07-31T10:05:10.188Z,30.60
2018-07-31T10:06:10.138Z,30.60
2018-07-31T10:07:10.129Z,30.67
2018-07-31T10:08:10.151Z,30.69
2018-07-31T10:09:10.092Z,30.88
2018-07-31T10:10:10.072Z,30.97
2018-07-31T10:11:10.073Z,31.04
2018-07-31T10:12:10.057Z,31.03
2018-07-31T10:13:10.032Z,31.03
2018-07-31T10:14:10.017Z,31.31
2018-07-31T10:15:10.006Z,31.41
2018-07-31T10:16:10.005Z,31.43
2018-07-31T10:17:09.994Z,31.49
2018-07-31T10:18:09.998Z,31.59
2018-07-31T10:19:09.948Z,31.60
2018-07-31T10:20:10.180Z,31.71
2018-07-31T10:21:09.923Z,31.65
2018-07-31T10:22:09.910Z,31.75
2018-07-31T10:23:09.889Z,31.55
2018-07-31T10:24:09.889Z,31.58
2018-07-31T10:25:10.068Z,31.55
2018-07-31T10:26:09.838Z,31.44
2018-07-31T10:27:09.848Z,31.40
2018-07-31T10:28:09.810Z,31.31
2018-07-31T10:29:09.798Z,31.33
2018-07-31T10:30:09.787Z,31.37
2018-07-31T10:31:09.770Z,31.38
2018-07-31T10:32:09.778Z,31.37
2018-07-31T10:33:09.750Z,31.38
2018-07-31T10:34:09.720Z,31.41
2018-07-31T10:35:09.723Z,31.40
2018-07-31T10:36:09.710Z,31.43
2018-07-31T10:37:09.677Z,31.59
2018-07-31T10:38:09.675Z,31.70
2018-07-31T10:39:09.663Z,31.62
2018-07-31T10:40:09.639Z,31.60
2018-07-31T10:41:09.653Z,31.71
2018-07-31T10:42:09.609Z,31.65
2018-07-31T10:43:09.609Z,31.74
2018-07-31T10:44:09.583Z,31.87
2018-07-31T10:45:09.574Z,31.88
2018-07-31T10:46:09.564Z,32.00
2018-07-31T10:47:09.540Z,31.97
2018-07-31T10:48:09.519Z,31.98
2018-07-31T10:49:09.513Z,31.98
2018-07-31T10:50:09.492Z,31.74
2018-07-31T10:51:09.558Z,31.81
2018-07-31T10:52:09.463Z,31.71
2018-07-31T10:53:09.448Z,31.43
2018-07-31T10:54:09.441Z,31.37
2018-07-31T10:55:09.535Z,31.26
2018-07-31T10:56:09.422Z,31.07
2018-07-31T10:57:09.405Z,31.04
2018-07-31T10:58:09.439Z,30.93
2018-07-31T10:59:09.374Z,31.01
2018-07-31T11:00:09.366Z,30.97
2018-07-31T11:01:09.334Z,30.86
2018-07-31T11:02:09.328Z,30.78
2018-07-31T11:03:09.330Z,30.77
2018-07-31T11:04:09.318Z,30.62
2018-07-31T11:05:09.286Z,30.66
2018-07-31T11:06:09.299Z,30.69
2018-07-31T11:07:09.258Z,30.60
2018-07-31T11:08:09.232Z,30.60
2018-07-31T11:09:09.230Z,30.57
2018-07-31T11:10:09.217Z,30.59
2018-07-31T11:11:09.190Z,30.48
2018-07-31T11:12:09.180Z,30.42
2018-07-31T11:13:09.172Z,30.40
2018-07-31T11:14:09.151Z,30.44
2018-07-31T11:15:09.161Z,30.39
2018-07-31T11:16:09.116Z,30.40
2018-07-31T11:17:09.101Z,30.56
2018-07-31T11:18:09.090Z,30.57
2018-07-31T11:19:09.073Z,30.56
2018-07-31T11:20:09.059Z,30.60
2018-07-31T11:21:09.051Z,30.64
2018-07-31T11:22:09.029Z,30.67
2018-07-31T11:23:09.013Z,30.70
2018-07-31T11:24:09.004Z,30.77
2018-07-31T11:25:08.980Z,30.81
2018-07-31T11:26:08.969Z,30.77
2018-07-31T11:27:08.967Z,30.67
2018-07-31T11:28:08.936Z,30.56
2018-07-31T11:29:08.920Z,30.62
2018-07-31T11:30:08.903Z,30.64
2018-07-31T11:31:08.896Z,30.75
2018-07-31T11:32:08.875Z,30.77
2018-07-31T11:33:08.925Z,30.78
2018-07-31T11:34:08.849Z,30.93
2018-07-31T11:35:08.831Z,30.85
2018-07-31T11:36:08.816Z,30.88
2018-07-31T11:37:08.801Z,30.86
2018-07-31T11:38:08.813Z,30.88
2018-07-31T11:39:08.778Z,30.96
2018-07-31T11:40:08.746Z,31.03
2018-07-31T11:41:08.739Z,31.06
2018-07-31T11:42:08.727Z,31.04
2018-07-31T11:43:08.716Z,31.06
2018-07-31T11:44:08.688Z,31.23
2018-07-31T11:45:08.675Z,31.33
2018-07-31T11:46:08.666Z,31.37
2018-07-31T11:47:08.653Z,31.43
2018-07-31T11:48:08.643Z,31.41
2018-07-31T11:49:08.618Z,31.52
2018-07-31T11:50:08.690Z,31.50
2018-07-31T11:51:08.591Z,31.52
2018-07-31T11:52:08.571Z,31.56
2018-07-31T11:53:08.558Z,31.52
2018-07-31T11:54:08.545Z,31.55
2018-07-31T11:55:08.531Z,31.62
2018-07-31T11:56:08.528Z,31.52
2018-07-31T11:57:08.491Z,31.56
2018-07-31T11:58:08.484Z,31.53
2018-07-31T11:59:08.469Z,31.41
2018-07-31T12:00:08.473Z,31.45
2018-07-31T12:01:08.451Z,31.45
2018-07-31T12:02:08.426Z,31.45
2018-07-31T12:03:08.403Z,31.52
2018-07-31T12:04:08.408Z,31.49
2018-07-31T12:05:08.389Z,31.55
2018-07-31T12:06:08.370Z,31.59
2018-07-31T12:07:08.360Z,31.67
2018-07-31T12:08:08.336Z,31.60
2018-07-31T12:09:08.319Z,31.58
2018-07-31T12:10:08.316Z,31.65
2018-07-31T12:11:08.290Z,31.56
2018-07-31T12:12:08.265Z,31.60
2018-07-31T12:13:08.262Z,31.59
2018-07-31T12:14:08.247Z,31.62
2018-07-31T12:15:08.235Z,31.70
2018-07-31T12:16:08.236Z,31.68
2018-07-31T12:17:08.193Z,31.74
2018-07-31T12:18:08.185Z,31.74
2018-07-31T12:19:08.233Z,31.86
2018-07-31T12:20:08.149Z,31.93
2018-07-31T12:21:08.144Z,32.00
2018-07-31T12:22:08.119Z,32.06
2018-07-31T12:23:08.126Z,32.12
2018-07-31T12:24:08.098Z,32.31
2018-07-31T12:25:08.081Z,32.27
2018-07-31T12:26:08.060Z,32.23
2018-07-31T12:27:08.050Z,32.23
2018-07-31T12:28:08.038Z,32.19
2018-07-31T12:29:08.032Z,32.20
2018-07-31T12:30:08.010Z,32.16
2018-07-31T12:31:07.996Z,32.28
2018-07-31T12:32:07.975Z,32.28
2018-07-31T12:33:08.041Z,32.20
2018-07-31T12:34:07.942Z,32.30
2018-07-31T12:35:07.933Z,32.19
2018-07-31T12:36:07.912Z,32.23
2018-07-31T12:37:07.897Z,32.24
2018-07-31T12:38:07.907Z,32.31
2018-07-31T12:39:07.871Z,32.42
2018-07-31T12:40:07.855Z,32.31
2018-07-31T12:41:07.841Z,32.27
2018-07-31T12:42:07.846Z,32.31
2018-07-31T12:43:07.830Z,32.31
2018-07-31T12:44:07.834Z,32.19
2018-07-31T12:45:07.831Z,32.05
2018-07-31T12:46:07.784Z,32.01
2018-07-31T12:47:07.781Z,32.05
2018-07-31T12:48:07.795Z,31.88
2018-07-31T12:49:07.790Z,31.87
2018-07-31T12:50:07.884Z,31.93
2018-07-31T12:51:07.775Z,32.00
2018-07-31T12:52:07.798Z,32.05